Time;durP1;ratioP1;P1;durP2;ratioP2;P2;SDS_P1;SDS_P2;PMS_P1;PMS_P2;Temp;Humidity;BMP_temperature;BMP_pressure;BME280_temperature;BME280_humidity;BME280_pressure;Samples;Min_cycle;Max_cycle;Signal;HPM_P1;HPM_P2
2023/07/14 00:00:08;;;;;;;0.43;0.43;;;;;;;21.12;72.64;95764.38;4349128;32;20189;-59
2023/07/14 00:02:33;;;;;;;0.23;0.23;;;;;;;21.23;72.47;95760.00;4348045;32;20204;-59
2023/07/14 00:05:00;;;;;;;0.40;0.40;;;;;;;21.29;72.21;95765.16;4357104;32;20224;-59
2023/07/14 00:07:25;;;;;;;0.30;0.23;;;;;;;21.18;72.19;95760.28;4348536;32;20211;-59
2023/07/14 00:09:51;;;;;;;0.53;0.53;;;;;;;21.18;72.31;95760.28;4343682;32;20173;-59
2023/07/14 00:12:18;;;;;;;0.30;0.30;;;;;;;21.27;72.30;95758.19;4351592;32;20257;-59
2023/07/14 00:14:43;;;;;;;0.97;0.77;;;;;;;21.24;72.08;95766.19;4345316;32;20173;-59
2023/07/14 00:17:12;;;;;;;0.40;0.40;;;;;;;21.12;72.57;95758.97;4340316;32;20216;-59
2023/07/14 00:19:38;;;;;;;0.50;0.50;;;;;;;21.13;72.75;95763.22;4333876;32;20207;-59
2023/07/14 00:22:14;;;;;;;0.40;0.40;;;;;;;21.16;72.52;95762.53;4344147;32;20181;-59
2023/07/14 00:24:41;;;;;;;1.43;1.10;;;;;;;21.07;72.54;95761.91;4337465;32;20227;-59
2023/07/14 00:27:17;;;;;;;0.73;0.73;;;;;;;21.07;72.49;95764.63;4348687;32;20181;-59
2023/07/14 00:29:45;;;;;;;0.53;0.53;;;;;;;21.03;72.45;95765.66;4343627;32;20182;-59
2023/07/14 00:32:16;;;;;;;0.50;0.50;;;;;;;21.03;72.16;95766.44;4338444;32;20203;-59
2023/07/14 00:34:42;;;;;;;0.37;0.37;;;;;;;21.00;72.50;95759.03;4330426;32;20185;-59
2023/07/14 00:37:07;;;;;;;0.30;0.30;;;;;;;20.98;72.67;95758.63;4348018;32;20173;-59
2023/07/14 00:39:33;;;;;;;0.67;0.60;;;;;;;20.93;72.17;95759.69;4342655;32;20181;-59
2023/07/14 00:41:58;;;;;;;2.37;0.50;;;;;;;20.92;72.42;95754.63;4353438;32;20178;-61
2023/07/14 00:44:24;;;;;;;1.37;1.10;;;;;;;20.95;72.69;95756.63;4347088;32;20228;-59
2023/07/14 00:46:50;;;;;;;0.20;0.20;;;;;;;21.03;72.28;95757.56;4349096;32;20243;-59
2023/07/14 00:49:38;;;;;;;1.03;0.93;;;;;;;20.93;72.09;95750.81;4349950;32;20173;-59
2023/07/14 00:52:16;;;;;;;0.50;0.50;;;;;;;21.00;71.97;95752.88;4354478;32;20177;-59
2023/07/14 00:54:46;;;;;;;0.30;0.30;;;;;;;21.01;72.18;95760.63;4349241;32;20196;-59
2023/07/14 00:57:15;;;;;;;0.30;0.30;;;;;;;20.96;71.62;95747.41;4357279;32;20181;-59
2023/07/14 00:59:41;;;;;;;0.30;0.30;;;;;;;20.94;71.78;95749.66;4346180;32;20178;-59
2023/07/14 01:02:23;;;;;;;0.53;0.53;;;;;;;21.03;71.78;95752.94;4352106;32;20195;-59
2023/07/14 01:05:06;;;;;;;0.50;0.50;;;;;;;21.02;71.52;95742.50;4336228;32;20265;-59
2023/07/14 01:07:38;;;;;;;0.47;0.47;;;;;;;21.05;71.42;95745.28;4341353;32;20176;-59
2023/07/14 01:10:05;;;;;;;0.53;0.53;;;;;;;20.95;70.98;95743.16;4352187;32;20181;-59
2023/07/14 01:12:33;;;;;;;0.53;0.50;;;;;;;20.93;70.98;95745.41;4353161;32;20235;-59
2023/07/14 01:14:59;;;;;;;0.97;0.87;;;;;;;20.98;71.15;95739.75;4340410;32;20199;-59
2023/07/14 01:17:25;;;;;;;0.60;0.60;;;;;;;20.89;71.35;95741.84;4352098;32;20181;-58
2023/07/14 01:19:55;;;;;;;0.30;0.30;;;;;;;20.90;71.27;95740.69;4336782;32;20200;-59
2023/07/14 01:22:46;;;;;;;0.30;0.30;;;;;;;20.99;71.26;95740.53;4351446;32;20195;-59
2023/07/14 01:25:16;;;;;;;0.20;0.20;;;;;;;21.00;71.29;95736.69;4349685;32;20252;-59
2023/07/14 01:27:41;;;;;;;0.40;0.40;;;;;;;20.97;71.20;95745.50;4349504;32;20188;-59
2023/07/14 01:30:08;;;;;;;0.40;0.40;;;;;;;20.92;71.31;95735.75;4346458;32;20215;-59
2023/07/14 01:32:38;;;;;;;1.07;0.93;;;;;;;20.91;71.43;95747.66;4344069;32;20195;-59
2023/07/14 01:35:07;;;;;;;0.57;0.57;;;;;;;20.95;71.68;95740.44;4348259;32;20192;-59
2023/07/14 01:37:37;;;;;;;0.60;0.60;;;;;;;20.93;71.59;95738.09;4345453;32;20181;-59
2023/07/14 01:40:11;;;;;;;0.30;0.30;;;;;;;20.88;71.97;95741.03;4338853;32;20191;-59
2023/07/14 01:42:38;;;;;;;0.60;0.50;;;;;;;20.93;72.03;95734.63;4345155;32;20195;-60
2023/07/14 01:45:09;;;;;;;3.30;0.77;;;;;;;20.89;72.42;95728.34;4350971;32;20181;-59
2023/07/14 01:47:36;;;;;;;0.60;0.60;;;;;;;20.90;72.45;95728.00;4351868;32;20182;-59
2023/07/14 01:50:02;;;;;;;0.20;0.20;;;;;;;20.91;72.53;95737.66;4355142;32;20182;-59
2023/07/14 01:52:30;;;;;;;0.50;0.50;;;;;;;20.92;72.45;95727.66;4337347;32;20268;-59
2023/07/14 01:55:01;;;;;;;0.63;0.63;;;;;;;20.89;72.65;95731.81;4344200;32;20220;-59
2023/07/14 01:57:30;;;;;;;0.40;0.40;;;;;;;20.91;72.59;95729.56;4335864;32;20185;-59
2023/07/14 02:00:11;;;;;;;0.70;0.70;;;;;;;20.86;72.96;95732.53;4344441;32;20205;-59
2023/07/14 02:02:38;;;;;;;0.70;0.70;;;;;;;20.84;73.06;95728.59;4345301;32;20181;-59
2023/07/14 02:05:18;;;;;;;0.53;0.53;;;;;;;20.84;73.13;95729.38;4346523;32;20177;-59
2023/07/14 02:07:44;;;;;;;0.30;0.30;;;;;;;20.82;73.44;95725.47;4349731;32;20189;-59
2023/07/14 02:10:16;;;;;;;0.90;0.90;;;;;;;20.82;73.37;95728.94;4354304;32;20247;-59
2023/07/14 02:12:46;;;;;;;0.73;0.70;;;;;;;20.83;73.54;95721.62;4338956;32;20215;-59
2023/07/14 02:15:23;;;;;;;0.30;0.30;;;;;;;20.82;73.52;95731.66;4340317;32;20181;-59
2023/07/14 02:17:50;;;;;;;0.50;0.50;;;;;;;20.81;73.60;95730.06;4340071;32;20180;-59
2023/07/14 02:20:36;;;;;;;0.57;0.57;;;;;;;20.77;73.74;95723.84;4341400;32;20196;-59
2023/07/14 02:23:05;;;;;;;0.20;0.20;;;;;;;20.85;73.57;95730.16;4344572;32;20189;-59
2023/07/14 02:25:47;;;;;;;0.53;0.53;;;;;;;20.86;73.53;95723.66;4352951;32;20248;-59
2023/07/14 02:28:14;;;;;;;0.40;0.40;;;;;;;20.85;73.47;95719.38;4351135;32;20231;-59
2023/07/14 02:30:45;;;;;;;0.50;0.50;;;;;;;20.86;73.37;95727.13;4342336;32;20200;-58
2023/07/14 02:33:17;;;;;;;0.20;0.20;;;;;;;20.84;73.58;95725.91;4355303;32;20177;-59
2023/07/14 02:35:56;;;;;;;0.10;0.10;;;;;;;20.74;73.75;95719.13;4349252;32;20223;-59
2023/07/14 02:38:22;;;;;;;0.40;0.40;;;;;;;20.80;73.65;95716.94;4351220;32;20181;-59
2023/07/14 02:40:51;;;;;;;3.40;1.03;;;;;;;20.71;74.08;95729.81;4351227;32;20189;-59
2023/07/14 02:43:19;;;;;;;0.30;0.30;;;;;;;20.76;73.80;95721.47;4349250;32;20190;-60
2023/07/14 02:45:54;;;;;;;0.33;0.33;;;;;;;20.76;73.66;95719.56;4348390;32;20239;-60
2023/07/14 02:48:32;;;;;;;0.27;0.27;;;;;;;20.84;73.67;95723.22;4337816;32;20202;-59
2023/07/14 02:50:58;;;;;;;0.10;0.10;;;;;;;20.74;73.68;95724.53;4347057;32;20214;-59
2023/07/14 02:53:23;;;;;;;0.33;0.33;;;;;;;20.77;73.70;95723.84;4346350;32;20201;-59
2023/07/14 02:55:49;;;;;;;0.20;0.20;;;;;;;20.77;73.52;95717.66;4350328;32;20267;-59
2023/07/14 02:58:14;;;;;;;0.40;0.40;;;;;;;20.80;73.59;95716.94;4353401;32;20247;-59
2023/07/14 03:00:39;;;;;;;0.50;0.50;;;;;;;20.83;73.41;95721.62;4348144;32;20229;-59
2023/07/14 03:03:05;;;;;;;0.40;0.40;;;;;;;20.88;73.32;95718.69;4350227;32;20272;-59
2023/07/14 03:05:30;;;;;;;0.57;0.57;;;;;;;20.89;73.22;95715.63;4353447;32;20255;-59
2023/07/14 03:07:55;;;;;;;0.50;0.50;;;;;;;20.89;73.20;95717.56;4354600;32;20200;-59
2023/07/14 03:10:21;;;;;;;0.33;0.33;;;;;;;20.83;73.21;95716.25;4343602;32;20190;-59
2023/07/14 03:12:46;;;;;;;0.57;0.57;;;;;;;20.80;73.45;95712.31;4344002;32;20200;-59
2023/07/14 03:15:12;;;;;;;0.30;0.30;;;;;;;20.77;73.14;95712.25;4352738;32;20204;-59
2023/07/14 03:17:37;;;;;;;0.20;0.20;;;;;;;20.68;73.41;95717.03;4343672;32;20189;-59
2023/07/14 03:20:04;;;;;;;0.47;0.47;;;;;;;20.65;73.53;95712.34;4351910;32;20189;-59
2023/07/14 03:22:30;;;;;;;0.23;0.23;;;;;;;20.64;73.62;95713.47;4336565;32;20178;-59
2023/07/14 03:24:58;;;;;;;2.10;0.97;;;;;;;20.62;73.66;95711.13;4338162;32;20197;-59
2023/07/14 03:27:24;;;;;;;0.70;0.67;;;;;;;20.71;73.28;95713.66;4356342;32;20188;-59
2023/07/14 03:29:49;;;;;;;0.40;0.40;;;;;;;20.67;73.22;95710.06;4338658;32;20192;-59
2023/07/14 03:32:14;;;;;;;0.47;0.47;;;;;;;20.68;73.23;95714.34;4341533;32;20199;-59
2023/07/14 03:34:40;;;;;;;0.43;0.43;;;;;;;20.60;73.19;95713.38;4359765;32;20254;-59
2023/07/14 03:37:06;;;;;;;0.33;0.33;;;;;;;20.64;73.25;95708.84;4355065;32;20253;-59
2023/07/14 03:39:31;;;;;;;0.30;0.30;;;;;;;20.73;73.34;95706.00;4356366;32;20247;-59
2023/07/14 03:41:58;;;;;;;0.70;0.40;;;;;;;20.65;72.80;95704.25;4349741;32;20245;-59
2023/07/14 03:44:24;;;;;;;0.30;0.30;;;;;;;20.59;72.99;95701.03;4352282;32;20180;-59
2023/07/14 03:46:50;;;;;;;1.40;0.83;;;;;;;20.61;73.26;95703.38;4353627;32;20240;-59
2023/07/14 03:49:16;;;;;;;0.60;0.60;;;;;;;20.55;73.10;95711.75;4356698;32;20185;-59
2023/07/14 03:51:42;;;;;;;0.30;0.30;;;;;;;20.61;73.03;95706.06;4345617;32;20255;-59
2023/07/14 03:54:08;;;;;;;0.20;0.20;;;;;;;20.45;73.28;95706.84;4348767;32;20190;-59
2023/07/14 03:56:34;;;;;;;0.60;0.60;;;;;;;20.53;73.42;95711.31;4340742;32;20228;-59
2023/07/14 03:58:59;;;;;;;1.03;0.37;;;;;;;20.57;73.17;95709.47;4337166;32;20244;-60
2023/07/14 04:01:27;;;;;;;0.37;0.37;;;;;;;20.48;73.06;95711.56;4347115;32;20252;-59
2023/07/14 04:03:53;;;;;;;0.87;0.67;;;;;;;20.47;72.97;95707.28;4340366;32;20181;-60
2023/07/14 04:06:18;;;;;;;0.57;0.57;;;;;;;20.49;73.30;95707.72;4341066;32;20267;-59
2023/07/14 04:08:44;;;;;;;0.67;0.67;;;;;;;20.44;73.27;95710.66;4352632;32;20220;-59
2023/07/14 04:11:12;;;;;;;0.30;0.30;;;;;;;20.46;73.33;95704.94;4350480;32;20243;-59
2023/07/14 04:13:37;;;;;;;0.53;0.53;;;;;;;20.39;73.29;95702.84;4344707;32;20185;-59
2023/07/14 04:16:05;;;;;;;0.73;0.73;;;;;;;20.44;73.32;95694.50;4345014;32;20185;-59
2023/07/14 04:18:30;;;;;;;0.40;0.40;;;;;;;20.45;73.35;95695.28;4358702;32;20224;-59
2023/07/14 04:21:14;;;;;;;0.43;0.43;;;;;;;20.52;73.54;95690.06;4351150;32;20197;-59
2023/07/14 04:23:40;;;;;;;0.37;0.37;;;;;;;20.54;73.22;95685.91;4355012;32;20192;-59
2023/07/14 04:26:07;;;;;;;0.30;0.30;;;;;;;20.56;73.05;95689.03;4343593;32;20199;-59
2023/07/14 04:28:34;;;;;;;0.33;0.33;;;;;;;20.49;72.93;95693.47;4354235;32;20205;-59
2023/07/14 04:31:03;;;;;;;0.30;0.30;;;;;;;20.58;73.10;95692.16;4345087;32;20204;-60
2023/07/14 04:33:29;;;;;;;0.20;0.20;;;;;;;20.57;72.97;95693.31;4342104;32;20197;-59
2023/07/14 04:35:56;;;;;;;0.73;0.73;;;;;;;20.59;73.13;95691.03;4353788;32;20184;-59
2023/07/14 04:38:23;;;;;;;0.57;0.57;;;;;;;20.54;72.82;95694.00;4349906;32;20216;-59
2023/07/14 04:40:49;;;;;;;0.33;0.33;;;;;;;20.47;72.94;95688.41;4349758;32;20257;-60
2023/07/14 04:43:15;;;;;;;0.30;0.30;;;;;;;20.50;72.90;95693.13;4354033;32;20208;-59
2023/07/14 04:45:42;;;;;;;0.40;0.40;;;;;;;20.54;73.03;95691.31;4358344;32;20240;-59
2023/07/14 04:48:09;;;;;;;0.63;0.63;;;;;;;20.47;73.02;95688.41;4335661;32;20177;-59
2023/07/14 04:50:35;;;;;;;0.30;0.30;;;;;;;20.56;73.25;95686.34;4325658;32;20192;-59
2023/07/14 04:53:05;;;;;;;2.63;0.87;;;;;;;20.53;72.72;95678.16;4356135;32;20212;-59
2023/07/14 04:55:31;;;;;;;0.40;0.40;;;;;;;20.48;72.82;95673.03;4352328;32;20239;-59
2023/07/14 04:57:57;;;;;;;0.47;0.47;;;;;;;20.56;72.82;95666.69;4348840;32;20181;-59
2023/07/14 05:00:22;;;;;;;1.17;0.63;;;;;;;20.64;72.62;95673.03;4331132;32;20182;-59
2023/07/14 05:02:48;;;;;;;0.70;0.70;;;;;;;20.64;72.46;95671.09;4346194;32;20185;-59
2023/07/14 05:05:20;;;;;;;0.43;0.43;;;;;;;20.63;72.66;95671.44;4344504;32;20177;-59
2023/07/14 05:07:48;;;;;;;0.53;0.53;;;;;;;20.50;72.63;95668.84;4344237;32;20240;-59
2023/07/14 05:10:13;;;;;;;0.40;0.40;;;;;;;20.55;72.66;95663.22;4343119;32;20282;-59
2023/07/14 05:12:38;;;;;;;0.23;0.23;;;;;;;20.49;72.62;95675.38;4351084;32;20185;-59
2023/07/14 05:15:06;;;;;;;5.53;1.83;;;;;;;20.42;73.06;95672.50;4337164;32;20203;-59
2023/07/14 05:17:34;;;;;;;5.50;0.70;;;;;;;20.40;73.66;95674.75;4348710;32;20272;-59
2023/07/14 05:20:00;;;;;;;2.13;0.97;;;;;;;20.52;73.45;95680.09;4345884;32;20247;-60
2023/07/14 05:22:26;;;;;;;0.43;0.43;;;;;;;20.57;73.09;95671.75;4346671;32;20189;-59
2023/07/14 05:24:51;;;;;;;1.60;0.43;;;;;;;20.32;73.33;95667.59;4347143;32;20196;-59
2023/07/14 05:27:16;;;;;;;2.80;0.70;;;;;;;20.37;73.49;95661.97;4350165;32;20181;-59
2023/07/14 05:29:46;;;;;;;6.00;3.73;;;;;;;20.18;73.72;95664.53;4344184;32;20209;-59
2023/07/14 05:32:11;;;;;;;2.47;1.13;;;;;;;20.33;74.14;95661.09;4350249;32;20189;-59
2023/07/14 05:34:36;;;;;;;2.10;0.93;;;;;;;19.93;74.34;95661.22;4351032;32;20180;-59
2023/07/14 05:37:02;;;;;;;0.30;0.30;;;;;;;20.03;74.79;95658.00;4350829;32;20181;-59
2023/07/14 05:39:28;;;;;;;8.83;1.80;;;;;;;19.93;74.43;95663.91;4353982;32;20193;-59
2023/07/14 05:41:53;;;;;;;0.90;0.90;;;;;;;20.06;74.73;95659.22;4343229;32;20200;-58
2023/07/14 05:44:18;;;;;;;1.13;1.13;;;;;;;20.11;74.15;95656.28;4351447;32;20296;-59
2023/07/14 05:46:44;;;;;;;2.30;1.50;;;;;;;20.19;74.30;95647.22;4337788;32;20189;-59
2023/07/14 05:49:09;;;;;;;1.27;1.07;;;;;;;20.28;74.39;95647.88;4347198;32;20240;-60
2023/07/14 05:51:34;;;;;;;1.10;1.00;;;;;;;20.33;74.24;95644.13;4345971;32;20212;-59
2023/07/14 05:54:00;;;;;;;1.60;1.17;;;;;;;20.39;73.93;95648.16;4360128;32;20224;-60
2023/07/14 05:56:25;;;;;;;1.67;1.13;;;;;;;20.22;73.66;95641.16;4351196;32;20189;-59
2023/07/14 05:58:50;;;;;;;1.57;1.27;;;;;;;20.22;74.72;95641.16;4354166;32;20192;-59
2023/07/14 06:01:16;;;;;;;0.57;0.57;;;;;;;20.41;74.08;95646.66;4339090;32;20181;-59
2023/07/14 06:03:41;;;;;;;0.87;0.87;;;;;;;20.44;73.33;95635.19;4351412;32;20239;-59
2023/07/14 06:06:07;;;;;;;6.77;2.03;;;;;;;20.37;73.70;95637.72;4343893;32;20240;-59
2023/07/14 06:08:33;;;;;;;0.40;0.40;;;;;;;20.36;74.15;95641.53;4360182;32;20173;-59
2023/07/14 06:10:58;;;;;;;0.87;0.87;;;;;;;20.49;73.55;95644.94;4356411;32;20200;-59
2023/07/14 06:13:23;;;;;;;0.83;0.83;;;;;;;20.40;73.44;95647.78;4350732;32;20232;-59
2023/07/14 06:15:49;;;;;;;0.60;0.60;;;;;;;20.42;73.84;95648.25;4345093;32;20271;-60
2023/07/14 06:18:15;;;;;;;0.30;0.30;;;;;;;20.28;74.94;95642.47;4344699;32;20244;-60
2023/07/14 06:20:41;;;;;;;2.10;0.80;;;;;;;20.08;74.88;95640.81;4355160;32;20293;-59
2023/07/14 06:23:06;;;;;;;0.33;0.33;;;;;;;20.04;75.09;95642.63;4342637;32;20204;-59
2023/07/14 06:25:33;;;;;;;1.40;1.30;;;;;;;20.33;74.65;95647.63;4340812;32;20190;-60
2023/07/14 06:27:59;;;;;;;0.83;0.83;;;;;;;20.57;73.99;95641.28;4354877;32;20203;-61
2023/07/14 06:30:25;;;;;;;0.50;0.50;;;;;;;20.74;73.44;95640.16;4355711;32;20197;-59
2023/07/14 06:32:51;;;;;;;0.90;0.90;;;;;;;20.62;72.91;95634.84;4345082;32;20235;-59
2023/07/14 06:35:17;;;;;;;0.53;0.53;;;;;;;20.82;73.41;95628.38;4337707;32;20177;-58
2023/07/14 06:37:42;;;;;;;0.40;0.40;;;;;;;20.92;71.19;95633.22;4336684;32;20224;-59
2023/07/14 06:40:09;;;;;;;0.80;0.80;;;;;;;21.04;71.35;95629.62;4343353;32;20200;-59
2023/07/14 06:42:34;;;;;;;0.27;0.27;;;;;;;21.14;71.51;95634.50;4352022;32;20203;-56
2023/07/14 06:45:01;;;;;;;0.50;0.50;;;;;;;21.22;70.96;95626.19;4334497;32;20177;-58
2023/07/14 06:47:26;;;;;;;0.47;0.47;;;;;;;20.67;69.57;95621.09;4349888;32;20195;-59
2023/07/14 06:49:52;;;;;;;0.87;0.63;;;;;;;20.44;70.79;95624.41;4353227;32;20177;-58
2023/07/14 06:52:17;;;;;;;0.33;0.33;;;;;;;20.81;71.90;95616.78;4356067;32;20188;-58
2023/07/14 06:54:45;;;;;;;0.63;0.63;;;;;;;21.00;71.47;95617.97;4353909;32;20207;-59
2023/07/14 06:57:10;;;;;;;0.70;0.70;;;;;;;20.99;70.87;95619.13;4353287;32;20177;-59
2023/07/14 06:59:36;;;;;;;0.43;0.43;;;;;;;21.15;71.71;95607.16;4343838;32;20177;-59
2023/07/14 07:02:01;;;;;;;0.30;0.30;;;;;;;21.14;71.04;95602.87;4355814;32;20185;-59
2023/07/14 07:04:27;;;;;;;0.40;0.40;;;;;;;21.11;69.69;95608.22;4354279;32;20173;-59
2023/07/14 07:06:53;;;;;;;0.73;0.70;;;;;;;21.01;70.25;95609.53;4339448;32;20193;-59
2023/07/14 07:09:19;;;;;;;0.47;0.47;;;;;;;20.97;69.89;95610.59;4350325;32;20216;-59
2023/07/14 07:11:44;;;;;;;0.70;0.70;;;;;;;21.10;69.41;95610.13;4355857;32;20189;-59
2023/07/14 07:14:10;;;;;;;0.50;0.47;;;;;;;21.37;70.40;95600.31;4339134;32;20173;-58
2023/07/14 07:16:36;;;;;;;0.50;0.50;;;;;;;21.24;68.48;95613.13;4348121;32;20196;-59
2023/07/14 07:19:02;;;;;;;0.50;0.50;;;;;;;21.40;68.63;95607.69;4352456;32;20191;-59
2023/07/14 07:21:27;;;;;;;0.57;0.57;;;;;;;21.60;68.91;95613.88;4347370;32;20185;-59
2023/07/14 07:23:53;;;;;;;1.33;0.97;;;;;;;21.62;69.50;95609.66;4348151;32;20224;-59
2023/07/14 07:26:18;;;;;;;1.13;1.13;;;;;;;21.66;67.87;95607.03;4331441;32;20625;-58
2023/07/14 07:28:43;;;;;;;3.77;3.57;;;;;;;21.69;66.25;95609.03;4356952;32;20192;-58
2023/07/14 07:31:10;;;;;;;1.00;1.00;;;;;;;21.72;66.40;95613.72;4345628;32;20197;-59
2023/07/14 07:33:40;;;;;;;0.90;0.90;;;;;;;21.74;66.47;95608.72;4336078;32;20193;-59
2023/07/14 07:36:15;;;;;;;3.17;2.27;;;;;;;21.84;67.50;95599.25;4340146;32;20182;-59
2023/07/14 07:38:47;;;;;;;1.93;1.93;;;;;;;21.73;66.77;95596.37;4346062;32;20237;-59
2023/07/14 07:41:17;;;;;;;1.23;1.23;;;;;;;21.80;67.42;95590.31;4351292;32;20244;-59
2023/07/14 07:43:43;;;;;;;2.07;1.97;;;;;;;21.89;67.96;95591.62;4357250;32;20185;-59
2023/07/14 07:46:08;;;;;;;0.33;0.33;;;;;;;21.94;65.92;95594.06;4351288;32;20248;-59
2023/07/14 07:48:35;;;;;;;1.03;1.03;;;;;;;22.02;66.48;95594.22;4346829;32;20207;-59
2023/07/14 07:51:03;;;;;;;0.40;0.40;;;;;;;22.06;65.26;95582.31;4349746;32;20284;-59
2023/07/14 07:53:28;;;;;;;0.50;0.50;;;;;;;22.08;63.97;95593.53;4359224;32;20185;-59
2023/07/14 07:55:56;;;;;;;6.30;4.07;;;;;;;22.16;64.62;95591.75;4348460;32;20276;-58
2023/07/14 07:58:25;;;;;;;1.10;1.10;;;;;;;22.21;65.31;95589.53;4347911;32;20181;-59
2023/07/14 08:00:54;;;;;;;3.53;3.23;;;;;;;22.19;64.71;95591.81;4344164;32;20185;-58
2023/07/14 08:03:20;;;;;;;1.07;1.07;;;;;;;22.12;64.67;95591.69;4354602;32;20283;-59
2023/07/14 08:05:45;;;;;;;1.67;1.67;;;;;;;22.19;66.07;95586.41;4343222;32;20228;-59
2023/07/14 08:08:11;;;;;;;4.10;2.23;;;;;;;22.22;66.18;95584.91;4337976;32;20249;-59
2023/07/14 08:10:45;;;;;;;0.97;0.93;;;;;;;22.17;66.02;95572.47;4353990;32;20197;-59
2023/07/14 08:13:11;;;;;;;0.40;0.40;;;;;;;22.08;65.25;95563.81;4336285;32;20185;-59
2023/07/14 08:15:37;;;;;;;0.50;0.50;;;;;;;22.04;65.78;95545.97;4338614;32;20235;-59
2023/07/14 08:18:04;;;;;;;0.40;0.40;;;;;;;22.23;65.99;95565.63;4337418;32;20203;-59
2023/07/14 08:20:30;;;;;;;0.77;0.73;;;;;;;22.40;65.05;95563.56;4340004;32;20207;-61
2023/07/14 08:22:56;;;;;;;1.10;0.77;;;;;;;22.25;65.01;95555.22;4356419;32;20185;-59
2023/07/14 08:25:22;;;;;;;0.77;0.77;;;;;;;22.26;65.09;95543.25;4338886;32;20191;-59
2023/07/14 08:27:47;;;;;;;0.20;0.20;;;;;;;22.46;64.26;95543.16;4346567;32;20181;-59
2023/07/14 08:30:13;;;;;;;0.90;0.70;;;;;;;22.47;65.10;95542.81;4352181;32;20181;-59
2023/07/14 08:32:38;;;;;;;0.60;0.60;;;;;;;22.51;63.78;95542.84;4349815;32;20240;-59
2023/07/14 08:35:04;;;;;;;0.30;0.30;;;;;;;22.45;62.95;95545.09;4354713;32;20227;-59
2023/07/14 08:37:29;;;;;;;0.53;0.53;;;;;;;22.51;63.79;95538.22;4349702;32;20199;-59
2023/07/14 08:39:55;;;;;;;0.73;0.73;;;;;;;22.63;62.29;95540.75;4347334;32;20176;-60
2023/07/14 08:42:26;;;;;;;0.87;0.87;;;;;;;22.54;63.03;95536.72;4338118;32;20305;-59
2023/07/14 08:45:19;;;;;;;0.77;0.77;;;;;;;22.72;62.95;95542.37;4320269;32;20185;-59
2023/07/14 08:47:50;;;;;;;0.47;0.47;;;;;;;22.86;61.80;95537.22;4357309;32;20193;-59
2023/07/14 08:50:22;;;;;;;0.50;0.50;;;;;;;22.95;59.90;95540.41;4336033;32;20252;-59
2023/07/14 08:52:51;;;;;;;0.50;0.50;;;;;;;22.96;59.24;95536.56;4335166;32;20341;-60
2023/07/14 08:55:20;;;;;;;0.60;0.60;;;;;;;22.98;59.57;95531.56;4345047;32;20283;-60
2023/07/14 08:57:54;;;;;;;0.30;0.30;;;;;;;22.96;59.51;95529.22;4345018;32;20208;-60
2023/07/14 09:00:38;;;;;;;0.23;0.23;;;;;;;23.08;59.82;95533.59;4335490;32;20275;-60
2023/07/14 09:03:12;;;;;;;0.77;0.77;;;;;;;23.07;62.15;95525.88;4346619;32;20201;-59
2023/07/14 09:05:48;;;;;;;0.57;0.57;;;;;;;23.04;62.06;95527.41;4349819;32;20173;-59
2023/07/14 09:08:14;;;;;;;0.60;0.60;;;;;;;23.05;60.94;95528.19;4337157;32;20176;-60
2023/07/14 09:11:02;;;;;;;0.50;0.33;;;;;;;23.09;59.26;95518.94;4343480;32;20235;-60
2023/07/14 09:13:48;;;;;;;0.10;0.10;;;;;;;23.11;59.74;95522.06;4343491;32;20181;-60
2023/07/14 09:16:18;;;;;;;0.20;0.20;;;;;;;23.13;59.19;95525.16;4349776;32;20252;-59
2023/07/14 09:18:49;;;;;;;1.27;0.70;;;;;;;23.20;59.05;95522.56;4351363;32;20185;-59
2023/07/14 09:21:29;;;;;;;0.40;0.40;;;;;;;23.18;59.71;95521.38;4349626;32;20189;-59
2023/07/14 09:24:08;;;;;;;0.40;0.40;;;;;;;23.19;60.62;95523.69;4341034;32;20295;-58
2023/07/14 09:26:46;;;;;;;0.30;0.30;;;;;;;23.22;60.48;95517.56;4337488;32;20185;-59
2023/07/14 09:29:18;;;;;;;0.50;0.50;;;;;;;23.27;60.39;95522.66;4341498;32;20232;-60
2023/07/14 09:32:02;;;;;;;0.43;0.43;;;;;;;23.28;60.95;95516.06;4331557;32;20211;-59
2023/07/14 09:34:32;;;;;;;0.37;0.37;;;;;;;23.35;60.29;95518.06;4338287;32;20182;-59
2023/07/14 09:36:58;;;;;;;1.10;1.00;;;;;;;23.31;60.16;95520.72;4330443;32;20178;-59
2023/07/14 09:39:34;;;;;;;0.20;0.20;;;;;;;23.31;61.24;95518.03;4349564;32;20189;-58
2023/07/14 09:42:03;;;;;;;0.40;0.40;;;;;;;23.35;61.22;95509.16;4344851;32;20177;-61
2023/07/14 09:44:29;;;;;;;5.60;3.13;;;;;;;23.52;59.16;95506.69;4358777;32;20196;-60
2023/07/14 09:46:55;;;;;;;2.20;1.63;;;;;;;23.67;57.93;95510.31;4343859;32;20185;-59
2023/07/14 09:49:37;;;;;;;0.60;0.60;;;;;;;23.61;58.14;95506.38;4349287;32;20290;-60
2023/07/14 09:52:12;;;;;;;0.50;0.50;;;;;;;23.72;56.65;95509.19;4346595;32;20203;-59
2023/07/14 09:54:49;;;;;;;0.30;0.30;;;;;;;23.71;55.36;95502.97;4351944;32;20207;-58
2023/07/14 09:57:18;;;;;;;0.20;0.20;;;;;;;23.77;52.85;95500.72;4335501;32;20185;-59
2023/07/14 09:59:54;;;;;;;0.80;0.80;;;;;;;23.88;50.63;95498.91;4354382;32;20195;-60
2023/07/14 10:02:26;;;;;;;0.37;0.37;;;;;;;24.01;50.60;95502.09;4341893;32;20311;-60
2023/07/14 10:04:58;;;;;;;0.40;0.40;;;;;;;24.09;52.29;95490.16;4351229;32;20190;-59
2023/07/14 10:07:26;;;;;;;0.37;0.37;;;;;;;24.02;52.77;95487.38;4337286;32;20200;-59
2023/07/14 10:10:01;;;;;;;0.50;0.50;;;;;;;24.14;50.89;95478.94;4343660;32;20236;-60
2023/07/14 10:12:40;;;;;;;0.47;0.47;;;;;;;24.50;47.69;95482.72;4347937;32;20240;-60
2023/07/14 10:15:31;;;;;;;0.30;0.30;;;;;;;24.44;47.30;95485.00;4329664;32;20200;-59
2023/07/14 10:18:12;;;;;;;0.50;0.50;;;;;;;24.19;48.19;95473.19;4330610;32;20181;-60
2023/07/14 10:20:39;;;;;;;0.60;0.60;;;;;;;24.20;48.99;95466.59;4330219;32;20193;-59
2023/07/14 10:23:13;;;;;;;1.90;1.80;;;;;;;24.22;48.41;95469.72;4343034;32;20195;-59
2023/07/14 10:25:39;;;;;;;0.60;0.60;;;;;;;24.28;47.34;95463.59;4338779;32;20288;-60
2023/07/14 10:28:12;;;;;;;0.87;0.87;;;;;;;24.31;46.90;95462.06;4347502;32;20178;-60
2023/07/14 10:31:02;;;;;;;0.83;0.83;;;;;;;24.45;46.68;95456.72;4351522;32;20192;-60
2023/07/14 10:33:43;;;;;;;0.40;0.40;;;;;;;24.34;49.23;95458.59;4333747;32;20193;-60
2023/07/14 10:36:14;;;;;;;0.13;0.13;;;;;;;24.33;49.42;95454.31;4344104;32;20225;-60
2023/07/14 10:38:50;;;;;;;0.40;0.40;;;;;;;24.30;50.51;95453.16;4347881;32;20207;-60
2023/07/14 10:41:17;;;;;;;0.50;0.50;;;;;;;24.45;49.18;95451.31;4342816;32;20236;-61
2023/07/14 10:44:13;;;;;;;0.60;0.60;;;;;;;24.60;46.28;95455.66;4355417;32;20239;-60
2023/07/14 10:46:44;;;;;;;0.30;0.30;;;;;;;24.57;46.82;95459.09;4344827;32;20190;-60
2023/07/14 10:49:15;;;;;;;0.37;0.37;;;;;;;24.54;47.03;95445.53;4338357;32;20279;-60
2023/07/14 10:51:52;;;;;;;0.33;0.33;;;;;;;24.44;48.19;95443.53;4339094;32;20174;-60
2023/07/14 10:54:33;;;;;;;0.30;0.30;;;;;;;24.44;49.73;95443.53;4348543;32;20200;-61
2023/07/14 10:57:43;;;;;;;0.30;0.30;;;;;;;24.39;49.10;95433.81;4356112;32;20191;-60
2023/07/14 11:00:25;;;;;;;0.43;0.43;;;;;;;24.48;50.02;95434.28;4336969;32;20193;-60
2023/07/14 11:03:28;;;;;;;0.23;0.13;;;;;;;24.37;47.16;95427.22;4351980;32;20177;-60
2023/07/14 11:06:00;;;;;;;0.33;0.33;;;;;;;24.56;45.78;95402.50;4338356;32;20185;-60
2023/07/14 11:08:28;;;;;;;0.20;0.20;;;;;;;24.65;45.54;95417.28;4344468;32;20231;-61
2023/07/14 11:11:22;;;;;;;0.10;0.10;;;;;;;24.76;45.27;95411.13;4341924;32;20189;-60
2023/07/14 11:14:09;;;;;;;0.30;0.30;;;;;;;24.77;45.25;95407.25;4333154;32;20174;-60
2023/07/14 11:16:58;;;;;;;0.27;0.27;;;;;;;24.94;45.35;95401.91;4351930;32;20257;-60
2023/07/14 11:19:30;;;;;;;0.20;0.20;;;;;;;25.01;45.59;95393.00;4362515;32;20193;-60
2023/07/14 11:22:23;;;;;;;0.60;0.60;;;;;;;25.00;46.47;95384.09;4361149;32;20185;-61
2023/07/14 11:25:09;;;;;;;0.93;0.57;;;;;;;24.95;48.07;95386.41;4358544;32;20189;-60
2023/07/14 11:27:58;;;;;;;0.20;0.20;;;;;;;24.91;48.90;95385.59;4337335;32;20306;-61
2023/07/14 11:30:34;;;;;;;0.20;0.20;;;;;;;24.87;48.04;95387.53;4357741;32;20185;-60
2023/07/14 11:33:17;;;;;;;0.30;0.30;;;;;;;24.80;48.21;95382.84;4348233;32;20200;-60
2023/07/14 11:35:58;;;;;;;0.30;0.30;;;;;;;25.17;45.92;95382.56;4350751;32;20203;-60
2023/07/14 11:38:38;;;;;;;0.23;0.23;;;;;;;25.09;47.43;95381.00;4342442;32;20185;-60
2023/07/14 11:41:05;;;;;;;0.20;0.20;;;;;;;25.01;48.58;95384.88;4355421;32;20196;-60
2023/07/14 11:43:31;;;;;;;0.30;0.30;;;;;;;24.93;49.71;95383.28;4354106;32;20224;-61
2023/07/14 11:46:02;;;;;;;0.60;0.60;;;;;;;24.91;48.86;95382.87;4361166;32;20282;-61